Time;durP1;ratioP1;P1;durP2;ratioP2;P2;SDS_P1;SDS_P2;PMS_P1;PMS_P2;Temp;Humidity;BMP_temperature;BMP_pressure;BME280_temperature;BME280_humidity;BME280_pressure;Samples;Min_cycle;Max_cycle;Signal;HPM_P1;HPM_P2
2022/10/29 00:01:42;;;;;;;15.55;4.53;;;16.10;61.70;;;;;;5036275;28;20434;-83
2022/10/29 00:04:07;;;;;;;14.98;4.05;;;16.10;61.90;;;;;;5034566;28;20037;-84
2022/10/29 00:06:33;;;;;;;15.55;4.28;;;16.10;61.80;;;;;;5036111;28;20018;-83
2022/10/29 00:08:58;;;;;;;15.13;4.38;;;16.00;62.20;;;;;;5035883;28;20092;-83
2022/10/29 00:11:24;;;;;;;15.18;4.13;;;16.00;62.30;;;;;;5035825;28;20025;-83
2022/10/29 00:13:54;;;;;;;18.65;4.72;;;16.00;62.50;;;;;;5018128;28;20034;-83
2022/10/29 00:16:23;;;;;;;15.60;4.10;;;16.00;62.50;;;;;;5034820;28;20065;-83
2022/10/29 00:18:48;;;;;;;15.73;4.57;;;15.90;62.30;;;;;;5036010;28;20017;-83
2022/10/29 00:21:17;;;;;;;17.23;4.55;;;15.90;62.40;;;;;;5034518;28;20079;-83
2022/10/29 00:23:43;;;;;;;13.70;4.93;;;15.90;62.30;;;;;;5018120;28;20036;-84
2022/10/29 00:26:09;;;;;;;17.27;3.88;;;15.80;62.30;;;;;;5018057;28;20021;-83
2022/10/29 00:28:35;;;;;;;16.60;4.60;;;15.80;62.40;;;;;;5035671;28;20390;-83
2022/10/29 00:31:05;;;;;;;18.77;4.88;;;15.80;62.20;;;;;;5035581;28;20098;-83
2022/10/29 00:33:32;;;;;;;16.45;4.25;;;15.80;62.20;;;;;;5033381;28;20029;-83
2022/10/29 00:36:00;;;;;;;16.98;4.82;;;15.80;62.50;;;;;;5017878;28;20474;-83
2022/10/29 00:38:26;;;;;;;20.00;4.90;;;15.80;62.70;;;;;;5017883;28;20508;-84
2022/10/29 00:40:52;;;;;;;20.25;5.03;;;15.80;62.70;;;;;;5017868;28;20120;-83
2022/10/29 00:43:21;;;;;;;14.60;4.25;;;15.80;62.80;;;;;;5017667;28;20073;-83
2022/10/29 00:46:06;;;;;;;13.90;4.53;;;15.80;62.80;;;;;;5035396;28;20053;-84
2022/10/29 00:48:35;;;;;;;23.13;5.28;;;15.80;62.90;;;;;;5035550;28;20059;-84
2022/10/29 00:51:04;;;;;;;18.25;4.88;;;15.70;63.00;;;;;;5017639;28;20026;-83
2022/10/29 00:53:33;;;;;;;18.70;4.82;;;15.70;63.50;;;;;;5017558;28;20025;-84
2022/10/29 00:55:59;;;;;;;17.75;5.03;;;15.70;63.30;;;;;;5017551;28;20033;-84
2022/10/29 00:58:26;;;;;;;14.35;4.40;;;15.70;63.10;;;;;;5017591;28;20021;-84
2022/10/29 01:00:52;;;;;;;20.45;4.75;;;15.70;63.20;;;;;;5017634;28;20071;-84
2022/10/29 01:03:17;;;;;;;12.77;4.00;;;15.70;62.90;;;;;;5033929;28;20397;-84
2022/10/29 01:05:45;;;;;;;14.50;4.68;;;15.80;62.80;;;;;;5017284;28;20025;-84
2022/10/29 01:08:12;;;;;;;16.25;4.68;;;15.80;63.00;;;;;;5017431;28;20216;-85
2022/10/29 01:10:45;;;;;;;20.98;5.22;;;15.80;62.90;;;;;;5017184;28;20432;-84
2022/10/29 01:13:41;;;;;;;14.10;4.30;;;15.80;62.60;;;;;;5034963;28;20037;-84
2022/10/29 01:16:33;;;;;;;12.85;4.35;;;15.80;62.50;;;;;;5035059;28;20097;-84
2022/10/29 01:19:21;;;;;;;16.25;4.30;;;15.80;62.40;;;;;;5017171;28;20022;-83
2022/10/29 01:22:04;;;;;;;18.88;4.75;;;15.70;62.20;;;;;;5034894;28;20021;-84
2022/10/29 01:24:35;;;;;;;17.48;4.40;;;15.80;61.50;;;;;;5034848;28;20371;-83
2022/10/29 01:27:19;;;;;;;13.05;3.55;;;15.80;61.20;;;;;;5034595;28;20537;-84
2022/10/29 01:30:16;;;;;;;18.25;4.43;;;16.00;60.60;;;;;;5017011;28;20025;-84
2022/10/29 01:32:42;;;;;;;12.75;4.07;;;16.00;60.40;;;;;;5008762;28;20091;-84
2022/10/29 01:35:28;;;;;;;20.10;4.35;;;16.00;60.10;;;;;;5017053;28;20017;-84
2022/10/29 01:38:24;;;;;;;20.27;3.78;;;16.00;59.90;;;;;;5034705;28;20032;-84
2022/10/29 01:41:15;;;;;;;16.98;4.18;;;16.10;60.40;;;;;;5016513;28;20033;-83
2022/10/29 01:43:48;;;;;;;13.45;4.45;;;16.10;60.50;;;;;;5034183;28;20048;-83
2022/10/29 01:46:26;;;;;;;16.60;4.20;;;16.00;60.90;;;;;;5016675;28;20053;-84
2022/10/29 01:48:56;;;;;;;20.05;4.65;;;16.10;60.90;;;;;;5034183;28;20025;-84
2022/10/29 01:51:27;;;;;;;9.70;4.07;;;16.00;61.00;;;;;;5034214;28;20083;-84
2022/10/29 01:53:53;;;;;;;16.83;4.60;;;16.10;61.10;;;;;;5016499;28;20087;-84
2022/10/29 01:56:19;;;;;;;21.35;5.00;;;16.10;61.30;;;;;;5016455;28;20043;-84
2022/10/29 01:58:50;;;;;;;12.38;3.83;;;16.10;61.50;;;;;;5016370;28;20104;-84
2022/10/29 02:01:34;;;;;;;14.30;4.35;;;16.10;61.60;;;;;;5016353;28;20022;-84
2022/10/29 02:04:05;;;;;;;16.08;4.50;;;16.10;61.70;;;;;;5016348;28;20124;-85
2022/10/29 02:07:05;;;;;;;11.13;3.67;;;16.10;61.70;;;;;;5016259;28;20064;-85
2022/10/29 02:09:36;;;;;;;14.35;4.07;;;16.00;61.60;;;;;;5016446;28;20053;-84
2022/10/29 02:12:23;;;;;;;19.50;4.60;;;16.10;61.80;;;;;;5016213;28;20017;-84
2022/10/29 02:15:18;;;;;;;12.75;4.35;;;16.10;61.30;;;;;;5016488;28;20024;-84
2022/10/29 02:17:44;;;;;;;14.32;3.83;;;16.00;61.00;;;;;;5007217;28;20034;-84
2022/10/29 02:20:11;;;;;;;17.20;4.00;;;16.10;61.30;;;;;;5016106;28;20022;-83
2022/10/29 02:22:37;;;;;;;21.20;4.68;;;16.00;61.10;;;;;;5015891;28;20033;-84
2022/10/29 02:25:05;;;;;;;19.38;4.57;;;16.10;61.10;;;;;;5015864;28;20398;-83
2022/10/29 02:27:31;;;;;;;17.60;4.32;;;16.00;61.10;;;;;;5015770;28;20548;-84
2022/10/29 02:29:56;;;;;;;20.35;4.15;;;16.10;61.60;;;;;;5033723;28;20037;-84
2022/10/29 02:32:22;;;;;;;14.98;3.72;;;16.00;61.80;;;;;;5032721;28;20027;-86
2022/10/29 02:34:47;;;;;;;22.15;4.43;;;15.90;62.10;;;;;;5016355;28;20032;-85
2022/10/29 02:37:13;;;;;;;13.63;4.03;;;16.00;61.90;;;;;;5016548;28;20087;-86
2022/10/29 02:39:39;;;;;;;10.82;3.05;;;15.90;62.50;;;;;;5033520;28;20056;-85
2022/10/29 02:42:04;;;;;;;14.07;3.78;;;15.90;63.10;;;;;;5015737;28;20029;-85
2022/10/29 02:44:30;;;;;;;14.15;3.55;;;15.90;63.20;;;;;;5015745;28;20417;-85
2022/10/29 02:46:55;;;;;;;12.75;3.78;;;16.00;63.20;;;;;;5015561;28;20593;-85
2022/10/29 02:49:21;;;;;;;10.13;3.03;;;15.90;64.70;;;;;;5033325;28;20033;-85
2022/10/29 02:51:47;;;;;;;12.20;3.97;;;15.90;65.20;;;;;;5032066;28;20045;-85
2022/10/29 02:54:12;;;;;;;13.82;4.32;;;15.80;66.20;;;;;;5015489;28;20034;-84
2022/10/29 02:56:38;;;;;;;13.63;3.88;;;15.80;66.30;;;;;;5015173;28;20393;-85
2022/10/29 02:59:03;;;;;;;9.32;3.80;;;15.90;66.40;;;;;;5033175;28;20029;-85
2022/10/29 03:01:29;;;;;;;16.25;4.22;;;15.80;66.70;;;;;;5015810;28;20112;-85
2022/10/29 03:03:54;;;;;;;20.33;4.65;;;15.90;66.90;;;;;;5033120;28;20057;-85
2022/10/29 03:06:20;;;;;;;10.82;4.00;;;15.80;67.90;;;;;;5015674;28;20021;-85
2022/10/29 03:08:46;;;;;;;10.90;3.83;;;15.80;67.00;;;;;;5015280;28;20056;-85
2022/10/29 03:11:12;;;;;;;20.70;3.63;;;15.80;66.60;;;;;;5016222;28;20087;-85
2022/10/29 03:13:37;;;;;;;10.63;4.03;;;15.80;65.00;;;;;;5035359;28;20021;-85
2022/10/29 03:16:04;;;;;;;17.35;3.97;;;15.70;67.20;;;;;;5015517;28;20112;-85
2022/10/29 03:18:29;;;;;;;17.05;3.38;;;15.70;65.50;;;;;;5015974;28;20048;-86
2022/10/29 03:20:55;;;;;;;10.63;3.08;;;15.60;66.00;;;;;;5015668;28;20501;-86
2022/10/29 03:23:21;;;;;;;18.45;4.20;;;15.60;67.20;;;;;;5015408;28;20375;-84
2022/10/29 03:25:55;;;;;;;14.48;4.20;;;15.60;66.50;;;;;;5015211;28;20018;-84
2022/10/29 03:28:21;;;;;;;8.25;2.95;;;15.60;65.40;;;;;;5015483;28;20109;-84
2022/10/29 03:30:48;;;;;;;12.27;3.60;;;15.60;64.30;;;;;;5032993;28;20104;-85
2022/10/29 03:33:13;;;;;;;14.68;3.88;;;15.60;64.10;;;;;;5015351;28;20022;-85
2022/10/29 03:35:39;;;;;;;12.80;3.45;;;15.70;63.80;;;;;;5015156;28;20493;-85
2022/10/29 03:38:05;;;;;;;14.25;3.53;;;15.70;64.00;;;;;;5014935;28;20493;-85
2022/10/29 03:40:30;;;;;;;16.27;4.55;;;15.70;64.60;;;;;;5015011;28;20331;-83
2022/10/29 03:42:56;;;;;;;16.75;4.78;;;15.60;65.00;;;;;;5015008;28;20025;-84
2022/10/29 03:45:21;;;;;;;16.83;3.83;;;15.60;66.00;;;;;;5014987;28;20025;-84
2022/10/29 03:47:47;;;;;;;12.00;4.25;;;15.50;65.50;;;;;;5015096;28;20083;-85
2022/10/29 03:50:12;;;;;;;15.43;4.63;;;15.50;65.10;;;;;;5015406;28;20030;-85
2022/10/29 03:52:38;;;;;;;14.25;3.83;;;15.50;64.60;;;;;;5032892;28;20022;-86
2022/10/29 03:55:05;;;;;;;10.98;3.88;;;15.50;64.50;;;;;;5015188;28;20072;-85
2022/10/29 03:57:30;;;;;;;22.08;3.67;;;15.50;64.40;;;;;;5015074;28;20040;-85
2022/10/29 03:59:56;;;;;;;12.68;4.25;;;15.50;64.10;;;;;;5015112;28;20025;-85
2022/10/29 04:02:22;;;;;;;17.60;3.90;;;15.50;64.00;;;;;;5014725;28;20532;-85
2022/10/29 04:04:47;;;;;;;22.52;4.25;;;15.50;63.90;;;;;;5014947;28;20033;-83
2022/10/29 04:07:13;;;;;;;18.70;3.78;;;15.50;63.80;;;;;;5016735;28;20045;-83
2022/10/29 04:09:39;;;;;;;16.48;3.92;;;15.60;63.10;;;;;;5036174;28;20026;-83
2022/10/29 04:12:07;;;;;;;19.42;3.45;;;15.70;63.10;;;;;;5034882;28;20489;-83
2022/10/29 04:14:33;;;;;;;10.68;3.65;;;15.70;63.00;;;;;;5036061;28;20500;-82
2022/10/29 04:16:59;;;;;;;17.48;3.65;;;15.70;62.50;;;;;;5018287;28;20029;-82
2022/10/29 04:19:25;;;;;;;12.80;3.53;;;15.70;61.90;;;;;;5018272;28;20391;-82
2022/10/29 04:21:50;;;;;;;16.48;3.28;;;15.80;61.40;;;;;;5036046;28;20044;-85
2022/10/29 04:24:16;;;;;;;16.63;4.00;;;15.80;61.50;;;;;;5018461;28;20039;-86
2022/10/29 04:26:42;;;;;;;12.57;3.60;;;15.80;61.20;;;;;;5018343;28;20025;-86
2022/10/29 04:29:08;;;;;;;19.60;4.28;;;15.80;61.40;;;;;;5018259;28;20056;-86
2022/10/29 04:31:34;;;;;;;14.40;3.05;;;15.80;61.40;;;;;;5018414;28;20049;-83
2022/10/29 04:34:00;;;;;;;15.30;3.92;;;15.90;61.50;;;;;;5035815;28;20053;-83
2022/10/29 04:36:26;;;;;;;17.63;3.85;;;15.90;61.30;;;;;;5017947;28;20060;-83
2022/10/29 04:38:51;;;;;;;12.13;3.55;;;15.90;62.30;;;;;;5017835;28;20068;-83
2022/10/29 04:41:17;;;;;;;12.32;3.95;;;15.80;61.70;;;;;;5035513;28;20072;-84
2022/10/29 04:43:42;;;;;;;15.30;4.55;;;15.90;61.60;;;;;;5017934;28;20065;-83
2022/10/29 04:46:09;;;;;;;16.15;4.22;;;15.90;62.00;;;;;;5034403;28;20386;-83
2022/10/29 04:48:34;;;;;;;16.85;4.28;;;15.80;61.50;;;;;;5017835;28;20481;-84
2022/10/29 04:51:00;;;;;;;19.38;4.55;;;15.90;61.40;;;;;;5035385;28;20037;-83
2022/10/29 04:53:26;;;;;;;16.40;4.00;;;15.90;61.30;;;;;;5035495;28;20026;-84
2022/10/29 04:56:02;;;;;;;12.13;3.53;;;15.80;61.20;;;;;;5017523;28;20071;-84
2022/10/29 04:58:27;;;;;;;14.48;3.78;;;15.80;61.20;;;;;;5017623;28;20053;-84
2022/10/29 05:00:53;;;;;;;16.35;4.00;;;15.80;61.60;;;;;;5035597;28;20025;-84
2022/10/29 05:03:19;;;;;;;12.80;3.65;;;15.80;61.30;;;;;;5018365;28;20025;-85
2022/10/29 05:05:44;;;;;;;15.73;4.28;;;15.80;61.40;;;;;;5035418;28;20067;-86
2022/10/29 05:08:10;;;;;;;15.30;4.00;;;15.70;61.50;;;;;;5017684;28;20494;-86
2022/10/29 05:10:38;;;;;;;21.33;4.13;;;15.70;61.70;;;;;;5017431;28;20060;-86
2022/10/29 05:13:06;;;;;;;22.10;4.10;;;15.80;61.70;;;;;;5036758;28;20060;-85
2022/10/29 05:15:33;;;;;;;15.05;3.97;;;15.80;61.50;;;;;;5017818;28;20025;-86
2022/10/29 05:17:59;;;;;;;17.00;3.97;;;15.80;61.60;;;;;;5017276;28;20049;-86
2022/10/29 05:20:25;;;;;;;21.02;3.63;;;15.80;61.20;;;;;;5017564;28;20025;-83
2022/10/29 05:23:17;;;;;;;17.48;3.88;;;15.80;61.10;;;;;;5034806;28;20102;-85
2022/10/29 05:25:45;;;;;;;19.60;4.22;;;15.80;61.10;;;;;;5014148;28;20032;-87
2022/10/29 05:28:13;;;;;;;11.02;3.72;;;15.80;61.50;;;;;;5017086;28;20124;-86
2022/10/29 05:30:40;;;;;;;16.15;3.78;;;15.70;61.70;;;;;;5034896;28;20044;-88
2022/10/29 05:33:07;;;;;;;19.33;4.25;;;15.70;61.40;;;;;;5017410;28;20040;-86
2022/10/29 05:35:33;;;;;;;15.27;3.85;;;15.80;61.50;;;;;;5016721;28;20481;-84
2022/10/29 05:37:59;;;;;;;13.35;3.72;;;15.70;61.60;;;;;;5016933;28;20061;-85
2022/10/29 05:40:25;;;;;;;16.08;3.90;;;15.70;62.00;;;;;;5018362;28;20051;-84
2022/10/29 05:42:50;;;;;;;12.65;4.03;;;15.70;62.10;;;;;;5018634;28;20026;-84
2022/10/29 05:45:16;;;;;;;15.13;4.55;;;15.60;62.10;;;;;;5037478;28;20104;-83
2022/10/29 05:47:42;;;;;;;21.30;3.22;;;15.60;61.40;;;;;;5018881;28;20100;-84
2022/10/29 05:50:08;;;;;;;18.60;4.25;;;15.60;60.90;;;;;;5018911;28;20103;-83
2022/10/29 05:52:34;;;;;;;17.42;4.40;;;15.70;60.80;;;;;;5019664;28;20029;-82
2022/10/29 05:54:59;;;;;;;15.07;4.07;;;15.70;60.90;;;;;;5019503;28;20036;-84
2022/10/29 05:57:26;;;;;;;15.35;4.18;;;15.70;60.80;;;;;;5036574;28;20029;-83
2022/10/29 05:59:52;;;;;;;16.00;4.28;;;15.70;60.70;;;;;;5017036;28;20029;-82
2022/10/29 06:02:18;;;;;;;19.83;4.57;;;15.70;61.00;;;;;;5017672;28;20048;-83
2022/10/29 06:04:43;;;;;;;20.27;5.18;;;15.60;61.60;;;;;;5017579;28;20085;-86
2022/10/29 06:07:09;;;;;;;17.83;3.78;;;15.60;61.80;;;;;;5016217;28;20021;-86
2022/10/29 06:09:34;;;;;;;14.02;3.78;;;15.60;62.10;;;;;;5016307;28;20030;-85
2022/10/29 06:12:00;;;;;;;13.88;3.72;;;15.60;61.90;;;;;;5016376;28;20064;-84
2022/10/29 06:14:26;;;;;;;15.65;4.13;;;15.50;61.50;;;;;;5016221;28;20029;-85
2022/10/29 06:16:51;;;;;;;12.75;3.67;;;15.50;61.70;;;;;;5016164;28;20025;-85
2022/10/29 06:19:17;;;;;;;12.65;4.15;;;15.50;61.70;;;;;;5033995;28;20035;-86
2022/10/29 06:21:43;;;;;;;17.30;3.78;;;15.50;62.00;;;;;;5016354;28;20501;-86
2022/10/29 06:24:09;;;;;;;18.48;4.20;;;15.50;61.90;;;;;;5017194;28;20064;-85
2022/10/29 06:26:36;;;;;;;16.20;4.18;;;15.50;62.00;;;;;;5016918;28;20025;-85
2022/10/29 06:29:02;;;;;;;14.75;4.85;;;15.50;62.20;;;;;;5017438;28;20474;-84
2022/10/29 06:31:29;;;;;;;17.10;4.60;;;15.40;62.20;;;;;;5019155;28;20080;-84
2022/10/29 06:33:55;;;;;;;18.95;4.57;;;15.40;62.50;;;;;;5018893;28;20028;-84
2022/10/29 06:36:21;;;;;;;14.73;3.95;;;15.50;62.10;;;;;;5033199;28;20120;-85
2022/10/29 06:38:47;;;;;;;19.30;4.25;;;15.40;62.20;;;;;;5016493;28;20021;-83
2022/10/29 06:41:13;;;;;;;15.68;4.13;;;15.40;62.30;;;;;;5016634;28;20036;-86
2022/10/29 06:43:38;;;;;;;11.98;3.38;;;15.40;62.10;;;;;;5016620;28;20482;-86
2022/10/29 06:46:04;;;;;;;20.23;3.90;;;15.40;62.20;;;;;;5016726;28;20053;-85
2022/10/29 06:48:32;;;;;;;14.82;4.15;;;15.40;62.00;;;;;;5016991;28;20021;-84
2022/10/29 06:50:59;;;;;;;18.02;4.10;;;15.40;61.70;;;;;;5016129;28;20022;-84
2022/10/29 06:53:25;;;;;;;12.75;3.83;;;15.50;61.80;;;;;;5033803;28;20080;-82
2022/10/29 06:55:51;;;;;;;19.10;3.92;;;15.50;61.50;;;;;;5015880;28;20078;-85
2022/10/29 06:58:19;;;;;;;14.40;3.88;;;15.60;61.30;;;;;;5016519;28;20128;-84
2022/10/29 07:00:45;;;;;;;13.95;4.03;;;15.60;61.10;;;;;;5017190;28;20049;-84
2022/10/29 07:03:19;;;;;;;18.00;4.18;;;15.70;60.90;;;;;;5033280;28;20596;-84
2022/10/29 07:05:48;;;;;;;14.15;3.70;;;15.70;61.30;;;;;;5016207;28;20079;-85
2022/10/29 07:08:14;;;;;;;11.50;4.00;;;15.70;61.50;;;;;;5015144;28;20128;-85
2022/10/29 07:10:40;;;;;;;16.23;4.05;;;15.70;61.50;;;;;;5015080;28;20118;-80
2022/10/29 07:13:05;;;;;;;19.50;3.72;;;15.80;66.50;;;;;;5032853;28;20036;-81
2022/10/29 07:15:31;;;;;;;14.15;4.05;;;16.00;63.40;;;;;;5033062;28;20057;-82
2022/10/29 07:17:59;;;;;;;15.93;3.42;;;16.20;62.60;;;;;;5032907;28;20055;-85
2022/10/29 07:20:29;;;;;;;15.68;3.88;;;16.30;62.10;;;;;;5013365;28;20482;-85
2022/10/29 07:22:56;;;;;;;13.95;3.92;;;16.30;60.10;;;;;;5031518;28;20048;-85
2022/10/29 07:25:22;;;;;;;17.30;4.40;;;16.40;60.30;;;;;;5014905;28;20056;-84
2022/10/29 07:27:48;;;;;;;11.98;4.13;;;16.40;59.70;;;;;;5014938;28;20030;-83
2022/10/29 07:30:14;;;;;;;19.30;4.70;;;16.40;59.70;;;;;;5032710;28;20105;-84
2022/10/29 07:32:39;;;;;;;17.23;4.18;;;16.50;59.60;;;;;;5015162;28;20033;-84
2022/10/29 07:35:05;;;;;;;16.50;3.80;;;16.70;59.40;;;;;;5015258;28;20026;-85
2022/10/29 07:37:31;;;;;;;19.88;4.30;;;16.70;58.80;;;;;;5032566;28;20493;-86
2022/10/29 07:39:56;;;;;;;16.85;4.10;;;16.80;58.40;;;;;;5015104;28;20112;-84
2022/10/29 07:42:22;;;;;;;14.63;4.28;;;16.80;58.10;;;;;;5017380;28;20026;-84
2022/10/29 07:44:47;;;;;;;16.10;3.67;;;16.80;58.30;;;;;;5018524;28;20033;-84
2022/10/29 07:47:13;;;;;;;21.17;4.60;;;16.90;58.00;;;;;;5036512;28;20036;-83
2022/10/29 07:49:39;;;;;;;17.77;4.15;;;17.00;57.90;;;;;;5018641;28;20025;-85
2022/10/29 07:52:04;;;;;;;17.00;4.00;;;17.10;58.00;;;;;;5018650;28;20087;-84
2022/10/29 07:54:30;;;;;;;17.52;4.57;;;17.30;57.10;;;;;;5036288;28;20017;-83
2022/10/29 07:56:55;;;;;;;14.02;4.43;;;17.40;56.70;;;;;;5018590;28;20033;-84
2022/10/29 07:59:21;;;;;;;15.57;4.45;;;17.60;56.00;;;;;;5036137;28;20355;-84
2022/10/29 08:01:46;;;;;;;15.40;3.85;;;17.80;55.10;;;;;;5018487;28;20492;-82
2022/10/29 08:04:12;;;;;;;15.05;4.53;;;18.00;53.90;;;;;;5018381;28;20083;-83
2022/10/29 08:06:38;;;;;;;13.85;4.10;;;18.20;53.30;;;;;;5036248;28;20101;-84
2022/10/29 08:09:04;;;;;;;13.40;4.07;;;18.40;52.50;;;;;;5035687;28;20060;-83
2022/10/29 08:11:31;;;;;;;14.13;4.00;;;18.50;52.30;;;;;;5018301;28;20381;-83
2022/10/29 08:13:57;;;;;;;15.05;3.85;;;18.60;52.20;;;;;;5035880;28;20112;-83
2022/10/29 08:16:23;;;;;;;18.50;4.53;;;18.80;52.20;;;;;;5018158;28;20466;-84
2022/10/29 08:18:48;;;;;;;14.80;4.75;;;18.90;51.40;;;;;;5036327;28;20052;-83
2022/10/29 08:21:14;;;;;;;13.95;5.53;;;19.10;50.70;;;;;;5018049;28;20489;-84
2022/10/29 08:23:40;;;;;;;15.50;4.60;;;19.30;49.80;;;;;;5018079;28;20038;-84
2022/10/29 08:26:05;;;;;;;18.55;4.47;;;19.50;49.50;;;;;;5018112;28;20048;-83
2022/10/29 08:28:31;;;;;;;12.55;4.30;;;19.60;48.80;;;;;;5036249;28;20065;-86
2022/10/29 08:30:56;;;;;;;14.55;4.20;;;19.70;48.60;;;;;;5018325;28;20018;-83
2022/10/29 08:33:22;;;;;;;15.27;4.07;;;19.80;48.30;;;;;;5017961;28;20022;-81
2022/10/29 08:35:47;;;;;;;10.90;4.07;;;19.80;48.20;;;;;;5035308;28;20484;-83
2022/10/29 08:38:13;;;;;;;12.75;4.55;;;19.90;48.30;;;;;;5024870;28;20477;-83
2022/10/29 08:41:07;;;;;;;15.98;3.72;;;19.90;48.60;;;;;;5016397;28;20072;-83
2022/10/29 08:43:51;;;;;;;15.05;4.55;;;20.10;48.30;;;;;;5031660;28;20026;-84
2022/10/29 08:46:46;;;;;;;12.63;4.28;;;20.30;48.10;;;;;;5035123;28;20079;-83
2022/10/29 08:49:24;;;;;;;14.75;4.57;;;20.50;47.00;;;;;;5035196;28;20025;-83
2022/10/29 08:52:26;;;;;;;12.07;3.75;;;20.70;47.00;;;;;;5034202;28;20025;-83
2022/10/29 08:55:11;;;;;;;15.95;4.25;;;20.90;47.10;;;;;;5029368;28;20532;-82
2022/10/29 08:57:42;;;;;;;12.85;3.90;;;21.10;47.00;;;;;;5031171;28;20056;-82
2022/10/29 09:00:15;;;;;;;13.32;3.58;;;21.40;46.40;;;;;;5031282;28;20021;-82
2022/10/29 09:02:41;;;;;;;13.18;3.45;;;21.60;45.70;;;;;;5034236;28;20042;-83
2022/10/29 09:05:15;;;;;;;14.35;4.32;;;21.80;44.90;;;;;;5034705;28;20033;-83
2022/10/29 09:08:25;;;;;;;13.02;4.40;;;21.90;44.30;;;;;;5034113;28;20486;-82
2022/10/29 09:10:54;;;;;;;17.27;5.32;;;22.10;44.10;;;;;;5020874;28;20052;-82
2022/10/29 09:13:39;;;;;;;11.73;4.05;;;22.20;43.10;;;;;;5034688;28;20056;-83
2022/10/29 09:16:26;;;;;;;10.50;3.40;;;22.40;42.50;;;;;;5034837;28;20018;-83
2022/10/29 09:19:18;;;;;;;13.25;3.55;;;22.60;41.60;;;;;;5034490;28;20025;-83
2022/10/29 09:22:06;;;;;;;13.77;4.20;;;22.80;40.20;;;;;;5034205;28;20021;-80
2022/10/29 09:24:52;;;;;;;12.13;3.58;;;23.00;40.00;;;;;;5034277;28;20033;-82
2022/10/29 09:27:39;;;;;;;9.65;4.00;;;23.20;39.40;;;;;;5016485;28;20022;-81
2022/10/29 09:30:08;;;;;;;14.93;4.03;;;23.30;39.40;;;;;;5034009;28;20489;-80
2022/10/29 09:32:41;;;;;;;19.48;4.25;;;23.60;39.10;;;;;;5034020;28;20097;-78
2022/10/29 09:35:16;;;;;;;17.38;3.38;;;23.80;37.70;;;;;;5033865;28;20029;-78
2022/10/29 09:37:55;;;;;;;11.40;3.22;;;24.10;37.20;;;;;;5033941;28;20022;-79
2022/10/29 09:40:33;;;;;;;26.30;4.15;;;24.40;36.70;;;;;;5033887;28;20056;-81
2022/10/29 09:43:06;;;;;;;12.00;3.22;;;24.80;35.60;;;;;;5033685;28;20077;-81
2022/10/29 09:46:18;;;;;;;14.82;3.35;;;25.00;35.70;;;;;;5033719;28;20094;-82
2022/10/29 09:49:24;;;;;;;16.67;3.17;;;25.50;35.20;;;;;;5028423;28;20406;-82
2022/10/29 09:51:59;;;;;;;13.90;3.28;;;25.80;34.80;;;;;;5016589;28;20027;-87
2022/10/29 09:54:28;;;;;;;12.77;3.28;;;26.10;33.60;;;;;;5016603;28;20026;-86
2022/10/29 09:56:55;;;;;;;9.73;3.22;;;26.30;33.90;;;;;;5034209;28;20470;-87
2022/10/29 09:59:33;;;;;;;12.40;3.13;;;26.50;33.10;;;;;;5033847;28;20108;-87
2022/10/29 10:01:59;;;;;;;11.68;3.40;;;26.80;31.50;;;;;;5034102;28;20397;-86
2022/10/29 10:04:27;;;;;;;12.90;3.25;;;26.90;30.80;;;;;;5033807;28;20029;-83
2022/10/29 10:07:16;;;;;;;12.77;2.85;;;27.10;30.60;;;;;;5016131;28;20079;-83
2022/10/29 10:09:59;;;;;;;16.13;7.35;;;27.20;29.40;;;;;;5034109;28;20552;-87
2022/10/29 10:12:46;;;;;;;20.15;6.20;;;27.40;28.80;;;;;;5034276;28;20036;-86
2022/10/29 10:15:15;;;;;;;14.00;4.03;;;27.50;28.80;;;;;;5032888;28;20048;-85
2022/10/29 10:18:01;;;;;;;14.98;3.67;;;27.70;28.60;;;;;;5033537;28;20549;-84
2022/10/29 10:20:30;;;;;;;12.98;3.47;;;27.90;29.00;;;;;;5033467;28;20469;-86
2022/10/29 10:22:56;;;;;;;13.90;6.70;;;28.00;30.00;;;;;;5015539;28;20390;-83
2022/10/29 10:25:34;;;;;;;12.07;4.55;;;28.20;28.60;;;;;;5033123;28;20038;-82
2022/10/29 10:28:30;;;;;;;9.38;2.85;;;28.40;28.50;;;;;;5033355;28;20045;-82
2022/10/29 10:31:15;;;;;;;16.38;3.33;;;28.60;27.30;;;;;;5033345;28;20028;-83
2022/10/29 10:34:07;;;;;;;10.73;2.73;;;28.80;27.10;;;;;;5034502;28;20363;-83
2022/10/29 10:36:39;;;;;;;11.75;3.05;;;29.10;27.00;;;;;;5033729;28;20272;-83
2022/10/29 10:39:23;;;;;;;11.95;3.35;;;29.40;26.20;;;;;;5033080;28;20398;-84
2022/10/29 10:41:50;;;;;;;14.25;3.03;;;29.50;26.10;;;;;;5015377;28;20060;-82
2022/10/29 10:44:18;;;;;;;16.98;3.35;;;29.70;24.60;;;;;;5032903;28;20081;-83
2022/10/29 10:46:44;;;;;;;16.15;3.88;;;29.90;24.70;;;;;;5033091;28;20018;-83
2022/10/29 10:49:37;;;;;;;10.77;3.47;;;30.10;25.80;;;;;;5032965;28;20053;-83
2022/10/29 10:52:12;;;;;;;10.77;3.38;;;30.30;26.50;;;;;;5032483;28;20034;-83
2022/10/29 10:54:43;;;;;;;16.85;3.28;;;30.60;25.90;;;;;;5014826;28;20116;-83
2022/10/29 10:57:11;;;;;;;15.95;3.38;;;30.90;25.40;;;;;;5033048;28;20021;-83
2022/10/29 11:00:05;;;;;;;7.18;3.05;;;31.10;24.50;;;;;;5032829;28;20381;-82
2022/10/29 11:02:42;;;;;;;10.07;3.35;;;31.20;23.50;;;;;;5032826;28;20208;-83
2022/10/29 11:05:14;;;;;;;12.30;2.72;;;31.40;24.40;;;;;;5015083;28;20042;-83
2022/10/29 11:07:45;;;;;;;13.27;2.90;;;31.50;23.50;;;;;;5032689;28;20540;-80
2022/10/29 11:10:13;;;;;;;13.98;2.88;;;31.70;22.80;;;;;;5032653;28;20107;-83
2022/10/29 11:12:44;;;;;;;15.15;2.80;;;31.80;22.80;;;;;;5032401;28;20017;-82
2022/10/29 11:15:13;;;;;;;14.07;2.67;;;32.00;22.40;;;;;;5032534;28;20029;-83
2022/10/29 11:17:53;;;;;;;14.45;3.17;;;32.20;22.50;;;;;;5032196;28;20029;-83
2022/10/29 11:20:29;;;;;;;12.82;4.20;;;32.20;22.00;;;;;;5032840;28;20036;-83
2022/10/29 11:23:20;;;;;;;18.13;4.85;;;32.00;22.80;;;;;;5032403;28;20163;-83
2022/10/29 11:26:07;;;;;;;14.00;4.30;;;32.00;24.40;;;;;;5032246;28;20120;-82
2022/10/29 11:28:37;;;;;;;12.15;4.07;;;32.20;24.40;;;;;;5032167;28;20024;-83
2022/10/29 11:31:13;;;;;;;11.90;3.88;;;32.20;23.90;;;;;;5032622;28;20022;-83
2022/10/29 11:34:08;;;;;;;19.30;4.05;;;32.20;23.80;;;;;;5032668;28;20108;-82
2022/10/29 11:36:40;;;;;;;12.25;3.70;;;31.80;24.70;;;;;;5030491;28;20038;-83
2022/10/29 11:39:16;;;;;;;12.77;3.33;;;31.30;26.60;;;;;;5032481;28;20079;-83
2022/10/29 11:41:56;;;;;;;19.38;4.07;;;31.60;27.00;;;;;;5032475;28;20018;-82
2022/10/29 11:44:22;;;;;;;12.50;3.65;;;31.20;27.30;;;;;;5032418;28;20120;-83
2022/10/29 11:47:06;;;;;;;18.25;4.35;;;31.30;27.10;;;;;;5032437;28;20531;-83
2022/10/29 11:49:50;;;;;;;14.07;4.07;;;31.60;26.70;;;;;;5032259;28;20037;-84
2022/10/29 11:52:39;;;;;;;8.63;3.50;;;31.80;25.60;;;;;;5032299;28;20083;-84
2022/10/29 11:55:26;;;;;;;12.07;3.47;;;32.00;26.40;;;;;;5032270;28;20060;-81
2022/10/29 11:57:58;;;;;;;12.80;3.25;;;32.20;25.90;;;;;;5032414;28;20025;-83
2022/10/29 12:00:24;;;;;;;16.13;4.32;;;32.30;24.90;;;;;;5016275;28;20080;-80
2022/10/29 12:03:19;;;;;;;16.00;3.83;;;32.50;25.50;;;;;;5032309;28;20036;-82
2022/10/29 12:06:05;;;;;;;17.30;3.85;;;32.60;24.90;;;;;;5032020;28;20021;-83
2022/10/29 12:08:49;;;;;;;13.50;3.95;;;32.30;26.00;;;;;;5031800;28;20041;-84
2022/10/29 12:11:24;;;;;;;20.17;4.50;;;32.30;25.60;;;;;;5032311;28;20120;-83
2022/10/29 12:14:19;;;;;;;14.40;3.83;;;32.60;24.50;;;;;;5033864;28;20025;-82
2022/10/29 12:16:53;;;;;;;18.52;3.60;;;32.80;23.80;;;;;;5034096;28;20111;-83
2022/10/29 12:19:30;;;;;;;19.50;3.75;;;32.70;23.40;;;;;;5032438;28;20030;-82
2022/10/29 12:22:15;;;;;;;11.88;3.97;;;32.30;24.40;;;;;;5032213;28;20025;-80
2022/10/29 12:25:20;;;;;;;10.02;3.00;;;32.10;25.90;;;;;;5014398;28;20095;-80
2022/10/29 12:28:05;;;;;;;11.85;3.08;;;32.10;26.20;;;;;;5032225;28;20394;-80
2022/10/29 12:30:39;;;;;;;10.73;3.30;;;32.10;26.50;;;;;;5035701;28;20093;-83
2022/10/29 12:33:17;;;;;;;9.80;3.15;;;32.30;25.30;;;;;;5036059;28;20025;-83
2022/10/29 12:36:00;;;;;;;14.75;3.72;;;32.60;25.10;;;;;;5035691;28;20021;-82
2022/10/29 12:38:41;;;;;;;10.32;3.42;;;33.00;24.50;;;;;;5035543;28;20041;-82
2022/10/29 12:41:31;;;;;;;9.55;3.45;;;33.30;22.80;;;;;;5035488;28;20036;-78
2022/10/29 12:44:19;;;;;;;14.30;3.33;;;33.80;22.30;;;;;;5017625;28;20033;-80
2022/10/29 12:47:00;;;;;;;15.82;3.67;;;34.30;20.30;;;;;;5035017;28;20344;-82
2022/10/29 12:49:46;;;;;;;9.95;3.10;;;34.50;18.00;;;;;;5035276;28;20027;-83
2022/10/29 12:52:32;;;;;;;17.80;3.28;;;34.40;18.60;;;;;;5035028;28;20040;-84
2022/10/29 12:54:59;;;;;;;9.75;2.50;;;33.70;15.80;;;;;;5035113;28;20021;-83
2022/10/29 12:57:35;;;;;;;10.90;3.08;;;33.50;16.20;;;;;;5035268;28;20419;-83
2022/10/29 13:00:22;;;;;;;7.70;2.47;;;33.40;16.80;;;;;;5035002;28;20091;-83
2022/10/29 13:02:50;;;;;;;12.63;3.30;;;33.60;17.60;;;;;;5034947;28;20121;-83